OERK/RUH METAR and TAF weather

Enter ICAO airport designator
Station Type Date Time Source
OERK METAR 2022/01/26 13:00 UTC NOAA

OERK 261300Z 15010KT CAVOK 27/01 Q1014 NOSIG


Station Type Date Time Source
OERK Decoded METAR 2022/01/26 13:00 UTC NOAA

King Khaled International Airport, Saudi Arabia (OERK) 24-56N 046-43E 612M
Jan 26, 2022 - 08:00 AM EST / 2022.01.26 1300 UTC
Wind: from the SSE (150 degrees) at 12 MPH (10 KT):0
Visibility: greater than 7 mile(s):0
Temperature: 80 F (27 C)
Dew Point: 33 F (1 C)
Relative Humidity: 18%
Pressure (altimeter): 29.94 in. Hg (1014 hPa)
ob: OERK 261300Z 15010KT CAVOK 27/01 Q1014 NOSIG
cycle: 13

Station Type Date Time Source
OERK TAF 2022/01/26 12:33 UTC NOAA

TAF OERK 261100Z 2612/2718 18014KT 7000 NSC PROB30
TEMPO 2612/2618 4000 DU
BECMG 2701/2703 VRB03KT
BECMG 2706/2708 34014KT

Example: see airport list